sensor_id;sensor_type;location;lat;lon;timestamp;temperature;humidity
33456;DHT22;19791;51.916;8.412;2023-07-13T00:02:22;17.40;99.90
33456;DHT22;19791;51.916;8.412;2023-07-13T00:04:47;17.40;99.90
33456;DHT22;19791;51.916;8.412;2023-07-13T00:07:13;17.40;99.90
33456;DHT22;19791;51.916;8.412;2023-07-13T00:09:40;17.30;99.90
33456;DHT22;19791;51.916;8.412;2023-07-13T00:12:26;17.30;99.90
33456;DHT22;19791;51.916;8.412;2023-07-13T00:14:53;17.30;99.90
33456;DHT22;19791;51.916;8.412;2023-07-13T00:17:18;17.30;99.90
33456;DHT22;19791;51.916;8.412;2023-07-13T00:19:44;17.20;99.90
33456;DHT22;19791;51.916;8.412;2023-07-13T00:22:10;17.20;99.90
33456;DHT22;19791;51.916;8.412;2023-07-13T00:24:36;17.20;99.90
33456;DHT22;19791;51.916;8.412;2023-07-13T00:27:08;17.20;99.90
33456;DHT22;19791;51.916;8.412;2023-07-13T00:29:35;17.20;99.90
33456;DHT22;19791;51.916;8.412;2023-07-13T00:32:05;17.20;99.90
33456;DHT22;19791;51.916;8.412;2023-07-13T00:34:31;17.20;99.90
33456;DHT22;19791;51.916;8.412;2023-07-13T00:36:57;17.20;99.90
33456;DHT22;19791;51.916;8.412;2023-07-13T00:39:23;17.10;99.90
33456;DHT22;19791;51.916;8.412;2023-07-13T00:41:49;17.10;99.90
33456;DHT22;19791;51.916;8.412;2023-07-13T00:44:17;17.10;99.90
33456;DHT22;19791;51.916;8.412;2023-07-13T00:46:43;17.10;99.90
33456;DHT22;19791;51.916;8.412;2023-07-13T00:49:11;17.10;99.90
33456;DHT22;19791;51.916;8.412;2023-07-13T00:51:51;17.10;99.90
33456;DHT22;19791;51.916;8.412;2023-07-13T00:54:24;17.20;99.90
33456;DHT22;19791;51.916;8.412;2023-07-13T00:56:54;17.20;99.90
33456;DHT22;19791;51.916;8.412;2023-07-13T00:59:21;17.20;99.90
33456;DHT22;19791;51.916;8.412;2023-07-13T01:01:48;17.20;99.90
33456;DHT22;19791;51.916;8.412;2023-07-13T01:04:14;17.30;99.90
33456;DHT22;19791;51.916;8.412;2023-07-13T01:06:40;17.30;99.90
33456;DHT22;19791;51.916;8.412;2023-07-13T01:09:10;17.30;99.90
33456;DHT22;19791;51.916;8.412;2023-07-13T01:11:36;17.40;99.90
33456;DHT22;19791;51.916;8.412;2023-07-13T01:14:02;17.50;99.90
33456;DHT22;19791;51.916;8.412;2023-07-13T01:16:31;17.50;99.90
33456;DHT22;19791;51.916;8.412;2023-07-13T01:18:57;17.60;99.90
33456;DHT22;19791;51.916;8.412;2023-07-13T01:21:25;17.60;99.90
33456;DHT22;19791;51.916;8.412;2023-07-13T01:23:51;17.70;99.90
33456;DHT22;19791;51.916;8.412;2023-07-13T01:26:17;17.80;99.90
33456;DHT22;19791;51.916;8.412;2023-07-13T01:28:43;17.80;99.90
33456;DHT22;19791;51.916;8.412;2023-07-13T01:31:09;17.90;99.90
33456;DHT22;19791;51.916;8.412;2023-07-13T01:33:37;18.00;99.90
33456;DHT22;19791;51.916;8.412;2023-07-13T01:36:03;17.90;99.90
33456;DHT22;19791;51.916;8.412;2023-07-13T01:38:29;17.90;99.90
33456;DHT22;19791;51.916;8.412;2023-07-13T01:40:55;17.90;99.90
33456;DHT22;19791;51.916;8.412;2023-07-13T01:43:20;17.80;99.90
33456;DHT22;19791;51.916;8.412;2023-07-13T01:45:46;17.70;99.90
33456;DHT22;19791;51.916;8.412;2023-07-13T01:48:13;17.70;99.90
33456;DHT22;19791;51.916;8.412;2023-07-13T01:50:39;17.70;99.90
33456;DHT22;19791;51.916;8.412;2023-07-13T01:53:05;17.60;99.90
33456;DHT22;19791;51.916;8.412;2023-07-13T01:55:31;17.60;99.90
33456;DHT22;19791;51.916;8.412;2023-07-13T01:57:57;17.60;99.90
33456;DHT22;19791;51.916;8.412;2023-07-13T02:00:23;17.50;99.90
33456;DHT22;19791;51.916;8.412;2023-07-13T02:02:50;17.50;99.90
33456;DHT22;19791;51.916;8.412;2023-07-13T02:05:16;17.50;99.90
33456;DHT22;19791;51.916;8.412;2023-07-13T02:07:42;17.40;99.90
33456;DHT22;19791;51.916;8.412;2023-07-13T02:10:09;17.30;99.90
33456;DHT22;19791;51.916;8.412;2023-07-13T02:12:36;17.20;99.90
33456;DHT22;19791;51.916;8.412;2023-07-13T02:15:02;17.10;99.90
33456;DHT22;19791;51.916;8.412;2023-07-13T02:17:28;17.00;99.90
33456;DHT22;19791;51.916;8.412;2023-07-13T02:19:54;16.90;99.90
33456;DHT22;19791;51.916;8.412;2023-07-13T02:22:20;16.80;99.90
33456;DHT22;19791;51.916;8.412;2023-07-13T02:24:45;16.80;99.90
33456;DHT22;19791;51.916;8.412;2023-07-13T02:27:11;16.80;99.90
33456;DHT22;19791;51.916;8.412;2023-07-13T02:29:37;16.80;99.90
33456;DHT22;19791;51.916;8.412;2023-07-13T02:32:03;16.80;99.90
33456;DHT22;19791;51.916;8.412;2023-07-13T02:34:29;16.70;99.90
33456;DHT22;19791;51.916;8.412;2023-07-13T02:36:54;16.60;99.90
33456;DHT22;19791;51.916;8.412;2023-07-13T02:39:20;16.60;99.90
33456;DHT22;19791;51.916;8.412;2023-07-13T02:41:46;16.60;99.90
33456;DHT22;19791;51.916;8.412;2023-07-13T02:44:13;16.50;99.90
33456;DHT22;19791;51.916;8.412;2023-07-13T02:46:39;16.40;99.90
33456;DHT22;19791;51.916;8.412;2023-07-13T02:49:05;16.40;99.90
33456;DHT22;19791;51.916;8.412;2023-07-13T02:51:31;16.40;99.90
33456;DHT22;19791;51.916;8.412;2023-07-13T02:54:03;16.30;99.90
33456;DHT22;19791;51.916;8.412;2023-07-13T02:56:31;16.30;99.90
33456;DHT22;19791;51.916;8.412;2023-07-13T02:58:57;16.30;99.90
33456;DHT22;19791;51.916;8.412;2023-07-13T03:01:24;16.20;99.90
33456;DHT22;19791;51.916;8.412;2023-07-13T03:03:50;16.10;99.90
33456;DHT22;19791;51.916;8.412;2023-07-13T03:06:17;16.10;99.90
33456;DHT22;19791;51.916;8.412;2023-07-13T03:08:43;16.10;99.90
33456;DHT22;19791;51.916;8.412;2023-07-13T03:11:15;16.10;99.90
33456;DHT22;19791;51.916;8.412;2023-07-13T03:13:41;16.00;99.90
33456;DHT22;19791;51.916;8.412;2023-07-13T03:16:08;16.00;99.90
33456;DHT22;19791;51.916;8.412;2023-07-13T03:18:36;15.80;99.90
33456;DHT22;19791;51.916;8.412;2023-07-13T03:21:02;15.80;99.90
33456;DHT22;19791;51.916;8.412;2023-07-13T03:23:28;15.80;99.90
33456;DHT22;19791;51.916;8.412;2023-07-13T03:26:09;15.70;99.90
33456;DHT22;19791;51.916;8.412;2023-07-13T03:28:35;15.70;99.90
33456;DHT22;19791;51.916;8.412;2023-07-13T03:31:11;15.60;99.90
33456;DHT22;19791;51.916;8.412;2023-07-13T03:33:37;15.50;99.90
33456;DHT22;19791;51.916;8.412;2023-07-13T03:36:05;15.50;99.90
33456;DHT22;19791;51.916;8.412;2023-07-13T03:38:31;15.50;99.90
33456;DHT22;19791;51.916;8.412;2023-07-13T03:40:57;15.50;99.90
33456;DHT22;19791;51.916;8.412;2023-07-13T03:43:23;15.50;99.90
33456;DHT22;19791;51.916;8.412;2023-07-13T03:45:48;15.50;99.90
33456;DHT22;19791;51.916;8.412;2023-07-13T03:48:14;15.50;99.90
33456;DHT22;19791;51.916;8.412;2023-07-13T03:50:40;15.40;99.90
33456;DHT22;19791;51.916;8.412;2023-07-13T03:53:06;15.40;99.90
33456;DHT22;19791;51.916;8.412;2023-07-13T03:55:31;15.40;99.90
33456;DHT22;19791;51.916;8.412;2023-07-13T04:00:43;15.40;99.90
33456;DHT22;19791;51.916;8.412;2023-07-13T04:03:08;15.40;99.90
33456;DHT22;19791;51.916;8.412;2023-07-13T04:05:34;15.40;99.90
33456;DHT22;19791;51.916;8.412;2023-07-13T04:08:00;15.40;99.90
33456;DHT22;19791;51.916;8.412;2023-07-13T04:10:26;15.40;99.90
33456;DHT22;19791;51.916;8.412;2023-07-13T04:12:52;15.50;99.90
33456;DHT22;19791;51.916;8.412;2023-07-13T04:15:17;15.50;99.90
33456;DHT22;19791;51.916;8.412;2023-07-13T04:17:43;15.50;99.90
33456;DHT22;19791;51.916;8.412;2023-07-13T04:20:09;15.60;99.90
33456;DHT22;19791;51.916;8.412;2023-07-13T04:22:34;15.50;99.90
33456;DHT22;19791;51.916;8.412;2023-07-13T04:25:00;15.60;99.90
33456;DHT22;19791;51.916;8.412;2023-07-13T04:27:26;15.60;99.90
33456;DHT22;19791;51.916;8.412;2023-07-13T04:29:51;15.60;99.90
33456;DHT22;19791;51.916;8.412;2023-07-13T04:32:17;15.70;99.90
33456;DHT22;19791;51.916;8.412;2023-07-13T04:34:42;15.70;99.90
33456;DHT22;19791;51.916;8.412;2023-07-13T04:37:08;15.70;99.90
33456;DHT22;19791;51.916;8.412;2023-07-13T04:39:34;15.70;99.90
33456;DHT22;19791;51.916;8.412;2023-07-13T04:41:59;15.80;99.90
33456;DHT22;19791;51.916;8.412;2023-07-13T04:44:25;15.80;99.90
33456;DHT22;19791;51.916;8.412;2023-07-13T04:46:51;15.80;99.90
33456;DHT22;19791;51.916;8.412;2023-07-13T04:49:16;15.80;99.90
33456;DHT22;19791;51.916;8.412;2023-07-13T04:51:42;15.80;99.90
33456;DHT22;19791;51.916;8.412;2023-07-13T04:54:07;15.90;99.90
33456;DHT22;19791;51.916;8.412;2023-07-13T04:56:33;15.90;99.90
33456;DHT22;19791;51.916;8.412;2023-07-13T04:58:58;15.90;99.90
33456;DHT22;19791;51.916;8.412;2023-07-13T05:01:24;16.00;99.90
33456;DHT22;19791;51.916;8.412;2023-07-13T05:03:50;16.10;99.90
33456;DHT22;19791;51.916;8.412;2023-07-13T05:06:16;16.20;99.90
33456;DHT22;19791;51.916;8.412;2023-07-13T05:08:41;16.30;99.90
33456;DHT22;19791;51.916;8.412;2023-07-13T05:11:07;16.60;99.90
33456;DHT22;19791;51.916;8.412;2023-07-13T05:13:33;16.90;99.90
33456;DHT22;19791;51.916;8.412;2023-07-13T05:16:03;17.00;99.90
33456;DHT22;19791;51.916;8.412;2023-07-13T05:18:30;17.10;99.90
33456;DHT22;19791;51.916;8.412;2023-07-13T05:21:01;17.10;99.90
33456;DHT22;19791;51.916;8.412;2023-07-13T05:23:27;17.00;99.90
33456;DHT22;19791;51.916;8.412;2023-07-13T05:25:53;17.00;99.90
33456;DHT22;19791;51.916;8.412;2023-07-13T05:28:18;17.00;99.90
33456;DHT22;19791;51.916;8.412;2023-07-13T05:30:48;16.90;99.90
33456;DHT22;19791;51.916;8.412;2023-07-13T05:33:14;17.00;99.90
33456;DHT22;19791;51.916;8.412;2023-07-13T05:35:40;17.10;99.90
33456;DHT22;19791;51.916;8.412;2023-07-13T05:38:06;17.10;99.90
33456;DHT22;19791;51.916;8.412;2023-07-13T05:40:31;17.10;99.90
33456;DHT22;19791;51.916;8.412;2023-07-13T05:42:57;17.20;99.90
33456;DHT22;19791;51.916;8.412;2023-07-13T05:45:23;17.30;99.90
33456;DHT22;19791;51.916;8.412;2023-07-13T05:47:49;17.40;99.90
33456;DHT22;19791;51.916;8.412;2023-07-13T05:50:14;17.40;99.90
33456;DHT22;19791;51.916;8.412;2023-07-13T05:52:40;17.40;99.90
33456;DHT22;19791;51.916;8.412;2023-07-13T05:55:06;17.50;99.90
33456;DHT22;19791;51.916;8.412;2023-07-13T05:57:32;17.50;99.90
33456;DHT22;19791;51.916;8.412;2023-07-13T05:59:57;17.50;99.90
33456;DHT22;19791;51.916;8.412;2023-07-13T06:02:23;17.60;99.90
33456;DHT22;19791;51.916;8.412;2023-07-13T06:04:49;17.70;99.90
33456;DHT22;19791;51.916;8.412;2023-07-13T06:07:15;17.80;99.90
33456;DHT22;19791;51.916;8.412;2023-07-13T06:09:40;17.80;99.90
33456;DHT22;19791;51.916;8.412;2023-07-13T06:12:06;17.80;99.90
33456;DHT22;19791;51.916;8.412;2023-07-13T06:14:32;17.80;99.90
33456;DHT22;19791;51.916;8.412;2023-07-13T06:16:58;17.80;99.90
33456;DHT22;19791;51.916;8.412;2023-07-13T06:19:23;18.00;99.90
33456;DHT22;19791;51.916;8.412;2023-07-13T06:21:49;18.00;99.90
33456;DHT22;19791;51.916;8.412;2023-07-13T06:24:15;18.00;99.90
33456;DHT22;19791;51.916;8.412;2023-07-13T06:26:40;18.00;99.90
33456;DHT22;19791;51.916;8.412;2023-07-13T06:29:06;18.00;99.90
33456;DHT22;19791;51.916;8.412;2023-07-13T06:31:32;18.00;99.90
33456;DHT22;19791;51.916;8.412;2023-07-13T06:33:57;18.00;99.90
33456;DHT22;19791;51.916;8.412;2023-07-13T06:36:23;18.10;99.90
33456;DHT22;19791;51.916;8.412;2023-07-13T06:38:49;18.10;99.90
33456;DHT22;19791;51.916;8.412;2023-07-13T06:41:14;18.10;99.90
33456;DHT22;19791;51.916;8.412;2023-07-13T06:43:40;18.10;99.90
33456;DHT22;19791;51.916;8.412;2023-07-13T06:46:06;18.00;99.90
33456;DHT22;19791;51.916;8.412;2023-07-13T06:48:32;18.10;99.90
33456;DHT22;19791;51.916;8.412;2023-07-13T06:50:57;18.10;99.90
33456;DHT22;19791;51.916;8.412;2023-07-13T06:53:24;18.20;99.90
33456;DHT22;19791;51.916;8.412;2023-07-13T06:55:50;18.30;99.90
33456;DHT22;19791;51.916;8.412;2023-07-13T06:58:17;18.40;99.90
33456;DHT22;19791;51.916;8.412;2023-07-13T07:00:43;18.50;99.90
33456;DHT22;19791;51.916;8.412;2023-07-13T07:03:09;18.50;99.90
33456;DHT22;19791;51.916;8.412;2023-07-13T07:05:35;18.60;99.90
33456;DHT22;19791;51.916;8.412;2023-07-13T07:08:00;18.60;99.90
33456;DHT22;19791;51.916;8.412;2023-07-13T07:10:30;18.70;99.90
33456;DHT22;19791;51.916;8.412;2023-07-13T07:12:57;18.70;99.90
33456;DHT22;19791;51.916;8.412;2023-07-13T07:15:22;18.80;99.90
33456;DHT22;19791;51.916;8.412;2023-07-13T07:17:48;18.90;99.90
33456;DHT22;19791;51.916;8.412;2023-07-13T07:20:14;19.00;99.90
33456;DHT22;19791;51.916;8.412;2023-07-13T07:22:40;19.20;99.90
33456;DHT22;19791;51.916;8.412;2023-07-13T07:25:05;19.20;99.90
33456;DHT22;19791;51.916;8.412;2023-07-13T07:27:32;19.30;99.90
33456;DHT22;19791;51.916;8.412;2023-07-13T07:29:57;19.40;99.90
33456;DHT22;19791;51.916;8.412;2023-07-13T07:32:23;19.40;99.90
33456;DHT22;19791;51.916;8.412;2023-07-13T07:34:49;19.50;99.90
33456;DHT22;19791;51.916;8.412;2023-07-13T07:37:15;19.50;99.90
33456;DHT22;19791;51.916;8.412;2023-07-13T07:39:42;19.60;99.90
33456;DHT22;19791;51.916;8.412;2023-07-13T07:42:07;19.60;99.90
33456;DHT22;19791;51.916;8.412;2023-07-13T07:44:33;19.80;99.90
33456;DHT22;19791;51.916;8.412;2023-07-13T07:46:59;19.90;99.90
33456;DHT22;19791;51.916;8.412;2023-07-13T07:49:25;20.20;99.90
33456;DHT22;19791;51.916;8.412;2023-07-13T07:51:51;20.20;99.90
33456;DHT22;19791;51.916;8.412;2023-07-13T07:54:17;20.40;99.90
33456;DHT22;19791;51.916;8.412;2023-07-13T07:56:43;20.60;99.90
33456;DHT22;19791;51.916;8.412;2023-07-13T07:59:09;20.60;99.90
33456;DHT22;19791;51.916;8.412;2023-07-13T08:01:35;20.60;99.90
33456;DHT22;19791;51.916;8.412;2023-07-13T08:04:01;20.60;99.90
33456;DHT22;19791;51.916;8.412;2023-07-13T08:06:27;20.70;99.90
33456;DHT22;19791;51.916;8.412;2023-07-13T08:08:53;20.50;99.90
33456;DHT22;19791;51.916;8.412;2023-07-13T08:11:21;20.50;99.90
33456;DHT22;19791;51.916;8.412;2023-07-13T08:13:47;20.50;99.90
33456;DHT22;19791;51.916;8.412;2023-07-13T08:16:13;20.50;99.90
33456;DHT22;19791;51.916;8.412;2023-07-13T08:18:38;20.70;99.90
33456;DHT22;19791;51.916;8.412;2023-07-13T08:21:06;20.60;99.90
33456;DHT22;19791;51.916;8.412;2023-07-13T08:23:32;20.70;99.90
33456;DHT22;19791;51.916;8.412;2023-07-13T08:25:57;20.60;99.90
33456;DHT22;19791;51.916;8.412;2023-07-13T08:28:24;20.70;99.90
33456;DHT22;19791;51.916;8.412;2023-07-13T08:30:49;20.90;99.90
33456;DHT22;19791;51.916;8.412;2023-07-13T08:33:20;21.20;99.90
33456;DHT22;19791;51.916;8.412;2023-07-13T08:35:47;21.50;99.70
33456;DHT22;19791;51.916;8.412;2023-07-13T08:38:13;21.20;97.90
33456;DHT22;19791;51.916;8.412;2023-07-13T08:40:39;21.00;98.60
33456;DHT22;19791;51.916;8.412;2023-07-13T08:43:12;21.10;99.80
33456;DHT22;19791;51.916;8.412;2023-07-13T08:45:57;21.30;99.60
33456;DHT22;19791;51.916;8.412;2023-07-13T08:48:28;21.60;97.50
33456;DHT22;19791;51.916;8.412;2023-07-13T08:54:01;21.70;96.10
33456;DHT22;19791;51.916;8.412;2023-07-13T08:56:29;22.10;96.00
33456;DHT22;19791;51.916;8.412;2023-07-13T08:59:03;22.60;93.40
33456;DHT22;19791;51.916;8.412;2023-07-13T09:01:47;23.10;91.90
33456;DHT22;19791;51.916;8.412;2023-07-13T09:04:21;24.00;91.50
33456;DHT22;19791;51.916;8.412;2023-07-13T09:12:19;26.00;80.00
33456;DHT22;19791;51.916;8.412;2023-07-13T09:14:53;25.60;77.40
33456;DHT22;19791;51.916;8.412;2023-07-13T09:17:25;26.00;74.20
33456;DHT22;19791;51.916;8.412;2023-07-13T09:20:08;25.60;73.10
33456;DHT22;19791;51.916;8.412;2023-07-13T09:22:37;25.60;76.30
33456;DHT22;19791;51.916;8.412;2023-07-13T09:25:24;25.90;72.90
33456;DHT22;19791;51.916;8.412;2023-07-13T09:27:55;25.20;72.50
33456;DHT22;19791;51.916;8.412;2023-07-13T09:31:18;24.60;74.30
33456;DHT22;19791;51.916;8.412;2023-07-13T09:33:19;25.20;74.60
33456;DHT22;19791;51.916;8.412;2023-07-13T09:35:45;25.70;71.90
33456;DHT22;19791;51.916;8.412;2023-07-13T09:38:16;25.70;71.00
33456;DHT22;19791;51.916;8.412;2023-07-13T09:43:18;24.50;74.90
33456;DHT22;19791;51.916;8.412;2023-07-13T09:45:46;24.40;76.20
33456;DHT22;19791;51.916;8.412;2023-07-13T09:48:15;24.50;76.70
33456;DHT22;19791;51.916;8.412;2023-07-13T09:50:42;24.40;77.80
33456;DHT22;19791;51.916;8.412;2023-07-13T09:53:16;24.20;75.10
33456;DHT22;19791;51.916;8.412;2023-07-13T09:55:45;24.40;76.10
33456;DHT22;19791;51.916;8.412;2023-07-13T09:58:20;25.40;73.90
33456;DHT22;19791;51.916;8.412;2023-07-13T10:00:59;26.20;71.30
33456;DHT22;19791;51.916;8.412;2023-07-13T10:03:31;26.80;68.10
33456;DHT22;19791;51.916;8.412;2023-07-13T10:08:37;27.30;65.40
33456;DHT22;19791;51.916;8.412;2023-07-13T10:13:40;27.40;64.80
33456;DHT22;19791;51.916;8.412;2023-07-13T10:16:07;27.50;65.10
33456;DHT22;19791;51.916;8.412;2023-07-13T10:18:46;27.40;64.40
33456;DHT22;19791;51.916;8.412;2023-07-13T10:21:19;27.80;64.20
33456;DHT22;19791;51.916;8.412;2023-07-13T10:23:55;26.60;64.40
33456;DHT22;19791;51.916;8.412;2023-07-13T10:26:27;26.00;66.00
33456;DHT22;19791;51.916;8.412;2023-07-13T10:28:57;26.10;69.10
33456;DHT22;19791;51.916;8.412;2023-07-13T10:31:25;26.20;67.10
33456;DHT22;19791;51.916;8.412;2023-07-13T10:33:50;26.80;65.40
33456;DHT22;19791;51.916;8.412;2023-07-13T10:38:51;26.80;65.80
33456;DHT22;19791;51.916;8.412;2023-07-13T10:41:21;26.30;64.60
33456;DHT22;19791;51.916;8.412;2023-07-13T10:43:51;25.60;65.90
33456;DHT22;19791;51.916;8.412;2023-07-13T10:46:20;26.20;68.00
33456;DHT22;19791;51.916;8.412;2023-07-13T10:48:50;26.80;64.40
33456;DHT22;19791;51.916;8.412;2023-07-13T10:51:18;26.40;64.10
33456;DHT22;19791;51.916;8.412;2023-07-13T10:53:47;26.60;66.90
33456;DHT22;19791;51.916;8.412;2023-07-13T10:56:22;26.20;64.50
33456;DHT22;19791;51.916;8.412;2023-07-13T10:59:11;26.10;66.90
33456;DHT22;19791;51.916;8.412;2023-07-13T11:02:11;26.20;65.10
33456;DHT22;19791;51.916;8.412;2023-07-13T11:04:45;27.00;65.50
33456;DHT22;19791;51.916;8.412;2023-07-13T11:09:52;25.60;65.20
33456;DHT22;19791;51.916;8.412;2023-07-13T11:17:48;23.90;70.30
33456;DHT22;19791;51.916;8.412;2023-07-13T11:25:34;23.90;72.70
33456;DHT22;19791;51.916;8.412;2023-07-13T11:33:24;24.70;70.60
33456;DHT22;19791;51.916;8.412;2023-07-13T11:36:07;24.20;72.10
33456;DHT22;19791;51.916;8.412;2023-07-13T11:38:42;24.20;72.50
33456;DHT22;19791;51.916;8.412;2023-07-13T11:41:32;24.20;72.70
33456;DHT22;19791;51.916;8.412;2023-07-13T11:44:21;24.30;72.80
33456;DHT22;19791;51.916;8.412;2023-07-13T11:46:51;24.10;71.80
33456;DHT22;19791;51.916;8.412;2023-07-13T11:49:19;24.00;73.40
33456;DHT22;19791;51.916;8.412;2023-07-13T11:51:46;24.50;71.30
33456;DHT22;19791;51.916;8.412;2023-07-13T11:56:47;26.90;65.70
33456;DHT22;19791;51.916;8.412;2023-07-13T11:59:14;26.60;63.20
33456;DHT22;19791;51.916;8.412;2023-07-13T12:01:47;26.40;63.70
33456;DHT22;19791;51.916;8.412;2023-07-13T12:04:28;25.90;66.00
33456;DHT22;19791;51.916;8.412;2023-07-13T12:07:08;25.60;65.80
33456;DHT22;19791;51.916;8.412;2023-07-13T12:09:39;25.80;66.50
33456;DHT22;19791;51.916;8.412;2023-07-13T12:12:13;25.80;64.60
33456;DHT22;19791;51.916;8.412;2023-07-13T12:14:40;25.50;63.90
33456;DHT22;19791;51.916;8.412;2023-07-13T12:17:22;25.00;65.70
33456;DHT22;19791;51.916;8.412;2023-07-13T12:19:49;24.60;67.00
33456;DHT22;19791;51.916;8.412;2023-07-13T12:22:18;25.50;67.10
33456;DHT22;19791;51.916;8.412;2023-07-13T12:24:45;26.00;64.80
33456;DHT22;19791;51.916;8.412;2023-07-13T12:27:25;26.50;65.60
33456;DHT22;19791;51.916;8.412;2023-07-13T12:30:22;27.00;63.20
33456;DHT22;19791;51.916;8.412;2023-07-13T12:33:11;26.30;62.10
33456;DHT22;19791;51.916;8.412;2023-07-13T12:35:49;25.30;65.80
33456;DHT22;19791;51.916;8.412;2023-07-13T12:38:16;25.40;67.90
33456;DHT22;19791;51.916;8.412;2023-07-13T12:40:42;25.60;65.10
33456;DHT22;19791;51.916;8.412;2023-07-13T12:43:14;25.40;65.10
33456;DHT22;19791;51.916;8.412;2023-07-13T12:45:58;25.10;66.20
33456;DHT22;19791;51.916;8.412;2023-07-13T12:48:24;25.60;66.40
33456;DHT22;19791;51.916;8.412;2023-07-13T12:50:53;26.40;62.00
33456;DHT22;19791;51.916;8.412;2023-07-13T12:53:23;26.60;62.80
33456;DHT22;19791;51.916;8.412;2023-07-13T12:55:56;27.40;61.80
33456;DHT22;19791;51.916;8.412;2023-07-13T12:58:32;28.40;58.80
33456;DHT22;19791;51.916;8.412;2023-07-13T13:01:02;29.40;56.10
33456;DHT22;19791;51.916;8.412;2023-07-13T13:03:44;30.10;54.50
33456;DHT22;19791;51.916;8.412;2023-07-13T13:08:49;29.90;53.60
33456;DHT22;19791;51.916;8.412;2023-07-13T13:11:15;29.60;52.60
33456;DHT22;19791;51.916;8.412;2023-07-13T13:13:42;29.00;52.10
33456;DHT22;19791;51.916;8.412;2023-07-13T13:16:34;28.70;54.10
33456;DHT22;19791;51.916;8.412;2023-07-13T13:19:20;29.10;54.70
33456;DHT22;19791;51.916;8.412;2023-07-13T13:21:47;29.30;53.30
33456;DHT22;19791;51.916;8.412;2023-07-13T13:24:17;29.00;53.40
33456;DHT22;19791;51.916;8.412;2023-07-13T13:26:46;28.40;53.50
33456;DHT22;19791;51.916;8.412;2023-07-13T13:29:17;27.70;56.70
33456;DHT22;19791;51.916;8.412;2023-07-13T13:31:43;27.30;57.30
33456;DHT22;19791;51.916;8.412;2023-07-13T13:34:15;27.40;58.40
33456;DHT22;19791;51.916;8.412;2023-07-13T13:36:42;27.90;56.80
33456;DHT22;19791;51.916;8.412;2023-07-13T13:39:30;27.40;55.80
33456;DHT22;19791;51.916;8.412;2023-07-13T13:41:56;26.60;57.50
33456;DHT22;19791;51.916;8.412;2023-07-13T13:44:22;25.90;58.80
33456;DHT22;19791;51.916;8.412;2023-07-13T13:46:52;25.50;61.40
33456;DHT22;19791;51.916;8.412;2023-07-13T13:49:25;25.20;64.00
33456;DHT22;19791;51.916;8.412;2023-07-13T13:51:52;25.00;64.50
33456;DHT22;19791;51.916;8.412;2023-07-13T13:54:20;24.80;66.80
33456;DHT22;19791;51.916;8.412;2023-07-13T13:56:48;24.60;68.60
33456;DHT22;19791;51.916;8.412;2023-07-13T13:59:14;24.50;69.60
33456;DHT22;19791;51.916;8.412;2023-07-13T14:01:41;24.40;71.40
33456;DHT22;19791;51.916;8.412;2023-07-13T14:04:13;24.50;73.30
33456;DHT22;19791;51.916;8.412;2023-07-13T14:06:40;24.50;72.70
33456;DHT22;19791;51.916;8.412;2023-07-13T14:09:10;24.20;73.10
33456;DHT22;19791;51.916;8.412;2023-07-13T14:11:36;23.60;75.50
33456;DHT22;19791;51.916;8.412;2023-07-13T14:14:02;23.00;77.30
33456;DHT22;19791;51.916;8.412;2023-07-13T15:14:33;17.50;99.90
33456;DHT22;19791;51.916;8.412;2023-07-13T15:16:59;17.30;99.90
33456;DHT22;19791;51.916;8.412;2023-07-13T15:19:26;17.30;99.90
33456;DHT22;19791;51.916;8.412;2023-07-13T15:21:53;17.20;99.90
33456;DHT22;19791;51.916;8.412;2023-07-13T15:24:20;17.00;99.90
33456;DHT22;19791;51.916;8.412;2023-07-13T15:26:47;16.90;99.90
33456;DHT22;19791;51.916;8.412;2023-07-13T15:29:17;16.80;99.90
33456;DHT22;19791;51.916;8.412;2023-07-13T15:31:43;16.70;99.90
33456;DHT22;19791;51.916;8.412;2023-07-13T15:34:14;16.70;99.90
33456;DHT22;19791;51.916;8.412;2023-07-13T15:36:40;16.70;99.90
33456;DHT22;19791;51.916;8.412;2023-07-13T15:39:06;16.70;99.90
33456;DHT22;19791;51.916;8.412;2023-07-13T15:41:33;16.80;99.90
33456;DHT22;19791;51.916;8.412;2023-07-13T15:44:00;16.90;99.90
33456;DHT22;19791;51.916;8.412;2023-07-13T15:46:30;17.20;99.90
33456;DHT22;19791;51.916;8.412;2023-07-13T15:48:57;17.40;99.90
33456;DHT22;19791;51.916;8.412;2023-07-13T15:51:27;17.60;99.90
33456;DHT22;19791;51.916;8.412;2023-07-13T15:53:55;17.70;99.90
33456;DHT22;19791;51.916;8.412;2023-07-13T15:56:34;17.70;99.90
33456;DHT22;19791;51.916;8.412;2023-07-13T15:59:01;17.60;99.90
33456;DHT22;19791;51.916;8.412;2023-07-13T16:01:26;17.60;99.90
33456;DHT22;19791;51.916;8.412;2023-07-13T16:03:52;17.70;99.90
33456;DHT22;19791;51.916;8.412;2023-07-13T16:06:33;17.70;99.90
33456;DHT22;19791;51.916;8.412;2023-07-13T16:09:01;17.80;99.90
33456;DHT22;19791;51.916;8.412;2023-07-13T16:11:33;17.90;99.90
33456;DHT22;19791;51.916;8.412;2023-07-13T16:13:59;18.10;99.90
33456;DHT22;19791;51.916;8.412;2023-07-13T16:16:30;18.50;99.90
33456;DHT22;19791;51.916;8.412;2023-07-13T16:18:57;19.10;99.90
33456;DHT22;19791;51.916;8.412;2023-07-13T16:21:29;19.60;99.90
33456;DHT22;19791;51.916;8.412;2023-07-13T16:23:56;19.80;99.90
33456;DHT22;19791;51.916;8.412;2023-07-13T16:28:53;19.90;99.90
33456;DHT22;19791;51.916;8.412;2023-07-13T16:31:30;20.00;99.90
33456;DHT22;19791;51.916;8.412;2023-07-13T16:33:57;20.20;99.90
33456;DHT22;19791;51.916;8.412;2023-07-13T16:36:25;20.10;99.90
33456;DHT22;19791;51.916;8.412;2023-07-13T16:38:50;19.90;99.90
33456;DHT22;19791;51.916;8.412;2023-07-13T16:41:16;19.80;99.90
33456;DHT22;19791;51.916;8.412;2023-07-13T16:43:42;19.60;99.90
33456;DHT22;19791;51.916;8.412;2023-07-13T16:48:45;19.40;99.90
33456;DHT22;19791;51.916;8.412;2023-07-13T16:51:10;19.40;99.90
33456;DHT22;19791;51.916;8.412;2023-07-13T16:53:36;19.50;99.90
33456;DHT22;19791;51.916;8.412;2023-07-13T16:56:02;19.60;99.90
33456;DHT22;19791;51.916;8.412;2023-07-13T16:58:32;19.80;99.90
33456;DHT22;19791;51.916;8.412;2023-07-13T17:00:59;20.10;99.90
33456;DHT22;19791;51.916;8.412;2023-07-13T17:03:24;20.00;99.90
33456;DHT22;19791;51.916;8.412;2023-07-13T17:05:53;20.00;99.90
33456;DHT22;19791;51.916;8.412;2023-07-13T17:08:30;19.90;99.90
33456;DHT22;19791;51.916;8.412;2023-07-13T17:11:00;19.80;99.90
33456;DHT22;19791;51.916;8.412;2023-07-13T17:13:28;19.60;99.90
33456;DHT22;19791;51.916;8.412;2023-07-13T17:15:55;19.40;99.90
33456;DHT22;19791;51.916;8.412;2023-07-13T17:18:29;19.30;99.90
33456;DHT22;19791;51.916;8.412;2023-07-13T17:21:03;19.10;99.90
33456;DHT22;19791;51.916;8.412;2023-07-13T17:23:29;19.00;99.90
33456;DHT22;19791;51.916;8.412;2023-07-13T17:25:58;18.80;99.90
33456;DHT22;19791;51.916;8.412;2023-07-13T17:28:24;18.70;99.90